Time;durP1;ratioP1;P1;durP2;ratioP2;P2;SDS_P1;SDS_P2;PMS_P1;PMS_P2;Temp;Humidity;BMP_temperature;BMP_pressure;BME280_temperature;BME280_humidity;BME280_pressure;Samples;Min_cycle;Max_cycle;Signal;HPM_P1;HPM_P2
2022/05/04 00:01:43;;;;;;;2.13;2.00;;;12.20;99.90;;;;;;5034565;28;20076;-83
2022/05/04 00:04:09;;;;;;;2.05;1.95;;;12.20;99.90;;;;;;5044242;28;20041;-82
2022/05/04 00:06:41;;;;;;;2.38;2.15;;;12.20;99.90;;;;;;5060806;28;20617;-83
2022/05/04 00:09:19;;;;;;;2.40;2.22;;;12.20;99.90;;;;;;5059865;28;20033;-84
2022/05/04 00:11:45;;;;;;;2.65;2.45;;;12.20;99.90;;;;;;5058113;28;20032;-83
2022/05/04 00:14:29;;;;;;;3.35;2.42;;;12.30;99.90;;;;;;5051683;28;20047;-82
2022/05/04 00:17:19;;;;;;;2.70;2.45;;;12.20;99.90;;;;;;5032104;28;20029;-83
2022/05/04 00:19:45;;;;;;;4.47;2.70;;;12.20;99.90;;;;;;4973740;28;20038;-82
2022/05/04 00:22:22;;;;;;;2.65;2.45;;;12.20;99.90;;;;;;4978852;28;20036;-81
2022/05/04 00:24:50;;;;;;;2.97;2.45;;;12.30;99.90;;;;;;5051626;28;20041;-83
2022/05/04 00:27:40;;;;;;;2.78;2.45;;;12.30;99.90;;;;;;5060980;28;20124;-83
2022/05/04 00:30:26;;;;;;;3.08;2.58;;;12.30;99.90;;;;;;5066881;28;20032;-84
2022/05/04 00:32:54;;;;;;;4.40;2.83;;;12.20;99.90;;;;;;5053467;28;20432;-83
2022/05/04 00:35:20;;;;;;;3.03;2.72;;;12.20;99.90;;;;;;5043386;28;20104;-83
2022/05/04 00:37:45;;;;;;;2.50;2.30;;;12.20;99.90;;;;;;5060037;28;20056;-82
2022/05/04 00:40:11;;;;;;;2.95;2.63;;;12.20;99.90;;;;;;5042528;28;20059;-82
2022/05/04 00:42:42;;;;;;;3.10;2.83;;;12.20;99.90;;;;;;5043337;28;20029;-82
2022/05/04 00:45:11;;;;;;;3.30;3.00;;;12.30;99.90;;;;;;5041417;28;20508;-81
2022/05/04 00:47:40;;;;;;;4.15;3.20;;;12.30;99.90;;;;;;5069058;28;20045;-81
2022/05/04 00:50:12;;;;;;;3.45;2.92;;;12.20;99.90;;;;;;5041564;28;20037;-82
2022/05/04 00:52:42;;;;;;;3.75;3.33;;;12.20;99.90;;;;;;5041715;28;20037;-82
2022/05/04 00:55:10;;;;;;;3.88;3.50;;;12.20;99.90;;;;;;5054142;28;20024;-82
2022/05/04 01:00:24;;;;;;;3.40;3.10;;;12.30;99.90;;;;;;5079320;28;20035;-83
2022/05/04 01:02:50;;;;;;;3.63;3.22;;;12.30;99.90;;;;;;5066043;28;20481;-82
2022/05/04 01:05:16;;;;;;;3.20;2.95;;;12.30;99.90;;;;;;5065423;28;20040;-83
2022/05/04 01:07:43;;;;;;;4.25;3.33;;;12.20;99.90;;;;;;5074849;28;20025;-83
2022/05/04 01:10:11;;;;;;;3.38;3.08;;;12.20;99.90;;;;;;5092195;28;20029;-82
2022/05/04 01:12:45;;;;;;;3.10;2.90;;;12.20;99.90;;;;;;5087615;28;20024;-83
2022/05/04 01:15:11;;;;;;;4.07;3.05;;;12.20;99.90;;;;;;5052681;28;20029;-84
2022/05/04 01:17:37;;;;;;;3.20;2.90;;;12.20;99.90;;;;;;5072195;28;20051;-84
2022/05/04 01:20:03;;;;;;;6.25;3.88;;;12.10;99.90;;;;;;5073007;28;20502;-82
2022/05/04 01:22:29;;;;;;;3.55;3.25;;;12.10;99.90;;;;;;5079489;28;20025;-82
2022/05/04 01:24:55;;;;;;;3.72;3.13;;;12.10;99.90;;;;;;5067330;28;20033;-83
2022/05/04 01:27:20;;;;;;;3.35;3.05;;;12.10;99.90;;;;;;5059465;28;20036;-83
2022/05/04 01:29:47;;;;;;;3.10;2.90;;;12.10;99.90;;;;;;5040396;28;20025;-84
2022/05/04 01:32:13;;;;;;;2.63;2.42;;;12.10;99.90;;;;;;5061608;28;20021;-82
2022/05/04 01:34:39;;;;;;;2.90;2.70;;;12.10;99.90;;;;;;5041172;28;20029;-82
2022/05/04 01:37:05;;;;;;;2.97;2.67;;;12.10;99.90;;;;;;5040367;28;20466;-81
2022/05/04 01:39:31;;;;;;;2.78;2.58;;;12.10;99.90;;;;;;5037589;28;20135;-81
2022/05/04 01:42:02;;;;;;;2.80;2.60;;;12.10;99.90;;;;;;5056250;28;20017;-82
2022/05/04 01:44:29;;;;;;;3.10;2.80;;;12.10;99.90;;;;;;5056178;28;20029;-83
2022/05/04 01:46:58;;;;;;;2.60;2.40;;;12.10;99.90;;;;;;5056856;28;20040;-82
2022/05/04 01:49:46;;;;;;;4.32;2.50;;;12.10;99.90;;;;;;5052328;28;20051;-81
2022/05/04 01:52:23;;;;;;;3.22;2.92;;;12.10;99.90;;;;;;5075926;28;20086;-83
2022/05/04 01:54:50;;;;;;;3.13;2.67;;;12.10;99.90;;;;;;5058052;28;20116;-83
2022/05/04 01:57:18;;;;;;;4.03;2.92;;;12.10;99.90;;;;;;5035133;28;20213;-83
2022/05/04 01:59:57;;;;;;;3.60;2.97;;;12.10;99.90;;;;;;5039629;28;20025;-83
2022/05/04 02:03:01;;;;;;;4.85;3.03;;;12.10;99.90;;;;;;5057246;28;20096;-82
2022/05/04 02:06:10;;;;;;;3.58;2.90;;;12.10;99.90;;;;;;5037141;28;20036;-83
2022/05/04 02:14:57;;;;;;;3.15;2.85;;;11.90;99.90;;;;;;4952835;28;20093;-83
2022/05/04 02:17:23;;;;;;;3.28;2.72;;;11.90;99.90;;;;;;5018766;28;20037;-83
2022/05/04 02:19:49;;;;;;;3.67;3.03;;;11.80;99.90;;;;;;5079419;28;20092;-83
2022/05/04 02:22:14;;;;;;;3.50;3.20;;;11.80;99.90;;;;;;5093302;28;20052;-83
2022/05/04 02:24:40;;;;;;;3.83;3.17;;;11.80;99.90;;;;;;5063715;28;20509;-83
2022/05/04 02:27:06;;;;;;;4.68;3.08;;;11.80;99.90;;;;;;5077723;28;20052;-83
2022/05/04 02:29:32;;;;;;;3.50;2.65;;;11.80;99.90;;;;;;5075697;28;20060;-83
2022/05/04 02:31:58;;;;;;;3.15;2.85;;;11.80;99.90;;;;;;5059587;28;20032;-84
2022/05/04 02:34:25;;;;;;;3.30;3.00;;;11.80;99.90;;;;;;5077218;28;20101;-83
2022/05/04 02:39:35;;;;;;;2.30;2.10;;;11.70;99.90;;;;;;5079275;28;20059;-83
2022/05/04 02:42:01;;;;;;;2.45;2.25;;;11.70;99.90;;;;;;5061123;28;20392;-83
2022/05/04 02:44:27;;;;;;;2.75;2.50;;;11.70;99.90;;;;;;5078480;28;20028;-83
2022/05/04 02:46:53;;;;;;;2.25;2.13;;;11.70;99.90;;;;;;5071532;28;20112;-82
2022/05/04 02:49:18;;;;;;;2.13;1.92;;;11.60;99.90;;;;;;5056916;28;20078;-83
2022/05/04 02:51:44;;;;;;;2.20;2.10;;;11.60;99.90;;;;;;5082049;28;20029;-84
2022/05/04 02:54:10;;;;;;;4.05;2.53;;;11.50;99.90;;;;;;5046161;28;20036;-84
2022/05/04 02:56:36;;;;;;;3.20;2.63;;;11.50;99.90;;;;;;5050021;28;20029;-83
2022/05/04 02:59:03;;;;;;;2.45;2.15;;;11.50;99.90;;;;;;5065629;28;20021;-81
2022/05/04 03:04:13;;;;;;;2.22;2.03;;;11.40;99.90;;;;;;5087173;28;20150;-83
2022/05/04 03:06:41;;;;;;;2.42;1.90;;;11.40;99.90;;;;;;5065956;28;20048;-81
2022/05/04 03:09:09;;;;;;;1.88;1.77;;;11.40;99.90;;;;;;5062053;28;20334;-82
2022/05/04 03:14:20;;;;;;;2.08;1.90;;;11.30;99.90;;;;;;5063496;28;20393;-82
2022/05/04 03:16:47;;;;;;;2.50;2.30;;;11.30;99.90;;;;;;5058460;28;20025;-82
2022/05/04 03:19:14;;;;;;;1.90;1.77;;;11.30;99.90;;;;;;5064695;28;20424;-81
2022/05/04 03:21:40;;;;;;;2.20;1.92;;;11.30;99.90;;;;;;5074768;28;20056;-81
2022/05/04 03:24:06;;;;;;;2.40;2.20;;;11.20;99.90;;;;;;5060034;28;20032;-81
2022/05/04 03:26:33;;;;;;;2.10;1.98;;;11.30;99.90;;;;;;5038094;28;20033;-82
2022/05/04 03:28:58;;;;;;;2.35;2.15;;;11.20;99.90;;;;;;5038561;28;20025;-81
2022/05/04 03:31:25;;;;;;;2.40;2.20;;;11.20;99.90;;;;;;5058821;28;20513;-81
2022/05/04 03:33:50;;;;;;;4.20;2.47;;;11.20;99.90;;;;;;5057832;28;20025;-82
2022/05/04 03:36:16;;;;;;;4.30;2.65;;;11.20;99.90;;;;;;5057988;28;20025;-81
2022/05/04 03:38:44;;;;;;;3.38;3.08;;;11.20;99.90;;;;;;5068282;28;20103;-82
2022/05/04 03:41:10;;;;;;;3.53;3.03;;;11.10;99.90;;;;;;5076416;28;20024;-82
2022/05/04 03:43:36;;;;;;;2.95;2.65;;;11.10;99.90;;;;;;5075734;28;20060;-83
2022/05/04 03:46:17;;;;;;;3.40;2.92;;;11.10;99.90;;;;;;5076555;28;20465;-82
2022/05/04 03:48:44;;;;;;;2.72;2.53;;;11.10;99.90;;;;;;5056701;28;20021;-83
2022/05/04 03:51:10;;;;;;;3.47;2.10;;;11.10;99.90;;;;;;5064745;28;20025;-84
2022/05/04 03:53:37;;;;;;;2.03;1.92;;;11.10;99.90;;;;;;5063323;28;20021;-83
2022/05/04 03:56:03;;;;;;;3.45;2.33;;;11.10;99.90;;;;;;5061819;28;20029;-83
2022/05/04 03:58:29;;;;;;;2.47;2.28;;;11.10;99.90;;;;;;5043390;28;20028;-83
2022/05/04 04:00:54;;;;;;;2.40;2.10;;;11.20;99.90;;;;;;5063969;28;20081;-84
2022/05/04 04:03:20;;;;;;;2.15;2.00;;;11.20;99.90;;;;;;5072343;28;20039;-82
2022/05/04 04:05:49;;;;;;;2.30;2.10;;;11.30;99.90;;;;;;5066151;28;20056;-82
2022/05/04 04:08:15;;;;;;;2.00;1.90;;;11.30;99.90;;;;;;5054963;28;20050;-82
2022/05/04 04:10:41;;;;;;;1.90;1.58;;;11.40;99.90;;;;;;5082933;28;20119;-83
2022/05/04 04:13:06;;;;;;;1.80;1.70;;;11.50;99.90;;;;;;5080344;28;20128;-83
2022/05/04 04:15:33;;;;;;;2.50;2.30;;;11.60;99.90;;;;;;5052022;28;20431;-82
2022/05/04 04:17:58;;;;;;;2.70;2.40;;;11.70;99.90;;;;;;5059775;28;20028;-83
2022/05/04 04:23:34;;;;;;;3.10;2.63;;;11.90;99.90;;;;;;5067184;28;20032;-83
2022/05/04 04:26:01;;;;;;;2.88;2.20;;;12.00;99.90;;;;;;5060323;28;20043;-82
2022/05/04 04:28:27;;;;;;;3.08;2.38;;;12.00;99.90;;;;;;5076940;28;20472;-83
2022/05/04 04:30:59;;;;;;;2.22;1.95;;;12.10;99.90;;;;;;5060636;28;20036;-82
2022/05/04 04:33:30;;;;;;;2.28;2.17;;;12.30;99.90;;;;;;5043112;28;20122;-82
2022/05/04 04:35:57;;;;;;;3.08;2.42;;;12.30;99.90;;;;;;5076901;28;20485;-82
2022/05/04 04:38:24;;;;;;;2.10;1.90;;;12.40;99.90;;;;;;5077211;28;20123;-80
2022/05/04 04:40:54;;;;;;;2.88;2.00;;;12.50;99.90;;;;;;5077429;28;20051;-84
2022/05/04 04:43:22;;;;;;;2.55;2.35;;;12.60;99.90;;;;;;5059795;28;20404;-83
2022/05/04 04:45:50;;;;;;;1.98;1.88;;;12.60;99.90;;;;;;5058222;28;20504;-82
2022/05/04 04:48:21;;;;;;;2.22;2.03;;;12.80;99.90;;;;;;5052031;28;20032;-85
2022/05/04 04:50:48;;;;;;;2.25;2.05;;;12.90;99.90;;;;;;5028793;28;20047;-83
2022/05/04 04:53:15;;;;;;;2.33;2.13;;;13.10;99.90;;;;;;5061960;28;20037;-85
2022/05/04 04:55:44;;;;;;;4.00;1.95;;;13.40;99.90;;;;;;5069029;28;20028;-84
2022/05/04 04:58:15;;;;;;;1.90;1.80;;;13.60;99.90;;;;;;5062976;28;20033;-85
2022/05/04 05:00:41;;;;;;;1.77;1.67;;;13.70;99.90;;;;;;5042422;28;20134;-85
2022/05/04 05:03:07;;;;;;;3.83;1.92;;;13.90;99.90;;;;;;5074575;28;20017;-85
2022/05/04 05:05:33;;;;;;;1.60;1.50;;;13.90;99.40;;;;;;5080528;28;20090;-85
2022/05/04 05:07:59;;;;;;;1.85;1.70;;;13.90;99.00;;;;;;5080148;28;20024;-86
2022/05/04 05:10:25;;;;;;;1.77;1.67;;;13.80;98.50;;;;;;5061134;28;20050;-85
2022/05/04 05:12:52;;;;;;;1.77;1.67;;;13.80;98.50;;;;;;5051104;28;20100;-84
2022/05/04 05:18:03;;;;;;;1.60;1.50;;;13.60;98.70;;;;;;5063530;28;20106;-86
2022/05/04 05:20:30;;;;;;;2.47;1.63;;;13.70;98.70;;;;;;5060228;28;20470;-84
2022/05/04 05:22:57;;;;;;;1.60;1.42;;;13.70;98.50;;;;;;5075388;28;20050;-85
2022/05/04 05:25:24;;;;;;;1.75;1.45;;;13.70;98.50;;;;;;5039471;28;20033;-86
2022/05/04 05:27:49;;;;;;;1.70;1.60;;;13.70;98.50;;;;;;5042118;28;20037;-84
2022/05/04 05:30:15;;;;;;;1.25;1.25;;;13.70;98.30;;;;;;5056657;28;20025;-85
2022/05/04 05:32:41;;;;;;;2.00;1.80;;;13.60;98.40;;;;;;5041856;28;20111;-85
2022/05/04 05:35:07;;;;;;;1.85;1.70;;;13.70;98.50;;;;;;5060050;28;20021;-84
2022/05/04 05:37:33;;;;;;;1.90;1.80;;;13.70;98.60;;;;;;5060079;28;20033;-86
2022/05/04 05:39:59;;;;;;;1.55;1.45;;;13.70;98.50;;;;;;5058144;28;20032;-85
2022/05/04 05:42:25;;;;;;;1.88;1.75;;;13.70;98.50;;;;;;5060709;28;20024;-86
2022/05/04 05:44:50;;;;;;;1.55;1.45;;;13.70;98.30;;;;;;5072414;28;20025;-86
2022/05/04 05:47:17;;;;;;;1.67;1.58;;;13.80;98.10;;;;;;5061969;28;20053;-86
2022/05/04 05:49:42;;;;;;;2.78;1.35;;;13.70;98.10;;;;;;5044009;28;20072;-86
2022/05/04 05:52:09;;;;;;;2.05;1.48;;;13.80;98.10;;;;;;5042763;28;20078;-86
2022/05/04 05:54:35;;;;;;;1.42;1.33;;;13.70;97.90;;;;;;5059750;28;20355;-85
2022/05/04 05:57:01;;;;;;;1.17;1.17;;;13.70;97.90;;;;;;5039713;28;20021;-87
2022/05/04 05:59:26;;;;;;;1.48;1.38;;;13.80;97.90;;;;;;5059187;28;20426;-86
2022/05/04 06:01:52;;;;;;;1.80;1.70;;;13.90;97.80;;;;;;5041331;28;20032;-85
2022/05/04 06:04:18;;;;;;;3.35;2.22;;;13.90;97.40;;;;;;5040858;28;20025;-85
2022/05/04 06:06:43;;;;;;;2.95;2.03;;;13.90;97.40;;;;;;5061214;28;20132;-85
2022/05/04 06:09:09;;;;;;;1.65;1.55;;;13.90;97.10;;;;;;5059204;28;20051;-84
2022/05/04 06:11:36;;;;;;;2.75;2.00;;;13.90;97.10;;;;;;5078710;28;20037;-86
2022/05/04 06:14:03;;;;;;;3.15;1.70;;;13.90;97.20;;;;;;5060107;28;20051;-86
2022/05/04 06:16:28;;;;;;;1.63;1.33;;;13.90;97.20;;;;;;5074137;28;20052;-86
2022/05/04 06:18:54;;;;;;;1.27;1.27;;;14.00;97.20;;;;;;5065214;28;20028;-85
2022/05/04 06:21:20;;;;;;;2.13;2.03;;;14.10;97.10;;;;;;5058867;28;20033;-85
2022/05/04 06:23:46;;;;;;;1.58;1.48;;;14.30;96.80;;;;;;5059882;28;20060;-86
2022/05/04 06:26:13;;;;;;;1.50;1.40;;;14.50;96.40;;;;;;5061290;28;20021;-84
2022/05/04 06:28:39;;;;;;;1.80;1.70;;;14.80;95.80;;;;;;5062887;28;20097;-86
2022/05/04 06:34:07;;;;;;;1.40;1.30;;;17.50;92.70;;;;;;5074581;28;20024;-84
2022/05/04 06:36:34;;;;;;;2.05;1.20;;;20.00;84.70;;;;;;5071410;28;20032;-84
2022/05/04 06:39:00;;;;;;;1.13;1.08;;;21.10;76.40;;;;;;5058847;28;20024;-85
2022/05/04 06:41:27;;;;;;;1.65;1.30;;;21.40;72.70;;;;;;5081812;28;20017;-84
2022/05/04 06:43:53;;;;;;;1.50;1.40;;;21.90;70.20;;;;;;5046599;28;20041;-85
2022/05/04 06:46:20;;;;;;;2.88;1.40;;;22.30;67.10;;;;;;5059272;28;20127;-84
2022/05/04 06:48:46;;;;;;;2.25;1.38;;;22.00;66.80;;;;;;5056978;28;20083;-85
2022/05/04 06:51:12;;;;;;;1.70;1.60;;;21.70;66.30;;;;;;5040160;28;20354;-83
2022/05/04 06:53:37;;;;;;;1.60;1.50;;;21.30;67.40;;;;;;5059294;28;20017;-84
2022/05/04 06:56:03;;;;;;;2.17;1.60;;;21.40;66.80;;;;;;5063116;28;20020;-85
2022/05/04 06:58:30;;;;;;;1.65;1.55;;;20.50;67.80;;;;;;5061547;28;20021;-85
2022/05/04 07:00:56;;;;;;;1.65;1.45;;;19.50;70.10;;;;;;5057406;28;20385;-84
2022/05/04 07:03:21;;;;;;;1.30;1.25;;;18.50;73.10;;;;;;5059411;28;20107;-85
2022/05/04 07:05:48;;;;;;;2.08;1.50;;;17.70;76.60;;;;;;5057984;28;20021;-85
2022/05/04 07:08:14;;;;;;;2.38;2.00;;;17.10;79.60;;;;;;5061388;28;20469;-86
2022/05/04 07:10:39;;;;;;;1.90;1.63;;;16.60;82.30;;;;;;5057687;28;20060;-84
2022/05/04 07:13:06;;;;;;;2.60;1.52;;;16.20;84.50;;;;;;5054654;28;20036;-85
2022/05/04 07:15:32;;;;;;;1.73;1.60;;;15.90;86.20;;;;;;5055960;28;20496;-84
2022/05/04 07:17:58;;;;;;;3.30;1.55;;;15.80;88.00;;;;;;5046270;28;20103;-85
2022/05/04 07:20:27;;;;;;;2.03;1.70;;;15.80;89.00;;;;;;5036720;28;20116;-86
2022/05/04 07:22:52;;;;;;;1.20;1.10;;;15.70;89.20;;;;;;5056715;28;20021;-85
2022/05/04 07:25:18;;;;;;;1.70;1.60;;;15.70;89.30;;;;;;5040109;28;20488;-84
2022/05/04 07:27:44;;;;;;;1.83;1.50;;;15.80;89.30;;;;;;5077376;28;20028;-85
2022/05/04 07:30:10;;;;;;;1.50;1.40;;;16.00;89.30;;;;;;5074402;28;20017;-86
2022/05/04 07:32:36;;;;;;;2.08;1.60;;;16.30;87.90;;;;;;5059195;28;20052;-84
2022/05/04 07:35:02;;;;;;;1.40;1.30;;;16.50;87.40;;;;;;5060826;28;20029;-85
2022/05/04 07:37:28;;;;;;;1.42;1.33;;;16.80;87.20;;;;;;5062076;28;20025;-86
2022/05/04 07:42:40;;;;;;;3.33;1.80;;;17.30;84.80;;;;;;5071156;28;20112;-85
2022/05/04 07:45:09;;;;;;;3.55;1.50;;;17.40;83.40;;;;;;5082755;28;20534;-85
2022/05/04 07:47:36;;;;;;;2.08;1.10;;;17.30;83.40;;;;;;5068445;28;20096;-84
2022/05/04 07:50:11;;;;;;;0.95;0.95;;;17.40;83.30;;;;;;5063030;28;20021;-85
2022/05/04 07:52:38;;;;;;;1.02;1.00;;;17.80;82.20;;;;;;5045391;28;20036;-85
2022/05/04 07:55:04;;;;;;;2.00;1.20;;;18.00;80.10;;;;;;5044617;28;20041;-85
2022/05/04 07:57:30;;;;;;;1.42;1.33;;;18.00;78.70;;;;;;5061549;28;20032;-85
2022/05/04 08:05:31;;;;;;;1.30;0.93;;;19.10;71.20;;;;;;5068277;28;20105;-84
2022/05/04 08:08:00;;;;;;;2.55;1.02;;;19.30;68.90;;;;;;5098410;28;20020;-84
2022/05/04 08:10:27;;;;;;;0.95;0.95;;;19.40;66.80;;;;;;5084455;28;20032;-85
2022/05/04 08:12:53;;;;;;;1.00;1.00;;;19.60;66.00;;;;;;5066152;28;20013;-85
2022/05/04 08:15:19;;;;;;;1.50;1.20;;;19.60;65.60;;;;;;5049620;28;20025;-85
2022/05/04 08:17:45;;;;;;;1.65;1.35;;;19.30;66.60;;;;;;5066192;28;20036;-84
2022/05/04 08:20:28;;;;;;;1.58;1.45;;;19.30;67.30;;;;;;5048135;28;20456;-85
2022/05/04 08:23:00;;;;;;;1.45;1.20;;;19.70;66.50;;;;;;5047226;28;20021;-84
2022/05/04 08:25:27;;;;;;;;;;;19.70;64.40;;;;;;5046723;28;20117;-84
2022/05/04 08:27:55;;;;;;;1.80;1.25;;;19.70;63.30;;;;;;5047147;28;19912;-84
2022/05/04 08:30:21;;;;;;;2.45;1.35;;;19.80;63.40;;;;;;5029943;28;20374;-84
2022/05/04 08:32:48;;;;;;;1.48;1.30;;;20.10;62.70;;;;;;5046597;28;20092;-84
2022/05/04 08:35:17;;;;;;;1.13;1.02;;;20.10;62.30;;;;;;5045913;28;20098;-85
2022/05/04 08:37:44;;;;;;;1.13;1.10;;;20.10;62.80;;;;;;5066591;28;20033;-84
2022/05/04 08:40:13;;;;;;;3.55;1.00;;;20.40;62.20;;;;;;5050542;28;20025;-85
2022/05/04 08:42:41;;;;;;;0.77;0.77;;;20.60;60.70;;;;;;5052425;28;20048;-84
2022/05/04 08:45:11;;;;;;;0.63;0.63;;;20.70;59.70;;;;;;5062734;28;19997;-86
2022/05/04 08:47:40;;;;;;;0.80;0.80;;;20.80;59.20;;;;;;5073837;28;20029;-84
2022/05/04 08:50:21;;;;;;;1.55;0.70;;;20.90;59.70;;;;;;5071819;28;20083;-85
2022/05/04 08:52:56;;;;;;;1.17;0.97;;;21.30;59.40;;;;;;5076046;28;20099;-84
2022/05/04 08:55:26;;;;;;;1.10;0.70;;;21.40;58.80;;;;;;5071138;28;20120;-85
2022/05/04 08:57:54;;;;;;;1.05;1.00;;;21.20;58.60;;;;;;5070351;28;20017;-85
2022/05/04 09:00:24;;;;;;;1.33;1.08;;;21.40;59.20;;;;;;5066950;28;20028;-84
2022/05/04 09:03:10;;;;;;;;;;;21.80;58.10;;;;;;5066540;28;20052;-86
2022/05/04 09:05:40;;;;;;;0.80;0.80;;;21.90;56.80;;;;;;5073797;28;19904;-84
2022/05/04 09:08:10;;;;;;;2.17;0.80;;;22.30;56.10;;;;;;5071493;28;20075;-85
2022/05/04 09:10:44;;;;;;;0.98;0.80;;;22.70;54.20;;;;;;5065485;28;20021;-85
2022/05/04 09:13:22;;;;;;;1.60;0.88;;;22.90;50.70;;;;;;5063911;28;20025;-86
2022/05/04 09:15:51;;;;;;;2.60;1.08;;;23.20;50.40;;;;;;5048219;28;20037;-85
2022/05/04 09:18:17;;;;;;;0.60;0.60;;;23.50;48.60;;;;;;5046484;28;20112;-84
2022/05/04 09:20:48;;;;;;;0.60;0.60;;;23.50;47.80;;;;;;5062238;28;20021;-86
2022/05/04 09:23:24;;;;;;;1.37;1.10;;;23.10;48.80;;;;;;5062366;28;20025;-84
2022/05/04 09:25:53;;;;;;;1.08;0.57;;;23.00;48.90;;;;;;5063760;28;20029;-86
2022/05/04 09:29:14;;;;;;;1.02;0.73;;;22.80;48.70;;;;;;5063851;28;20107;-85
2022/05/04 09:31:45;;;;;;;0.70;0.70;;;22.40;49.60;;;;;;5049792;28;20053;-85
2022/05/04 09:34:15;;;;;;;0.70;0.67;;;22.00;50.50;;;;;;5062362;28;20017;-85
2022/05/04 09:50:40;;;;;;;1.08;1.08;;;21.70;51.50;;;;;;5061133;28;20088;-85
2022/05/04 09:53:07;;;;;;;0.90;0.90;;;21.70;51.80;;;;;;5063629;28;20049;-85
2022/05/04 09:55:37;;;;;;;1.63;0.77;;;21.70;51.80;;;;;;5062272;28;20048;-85
2022/05/04 09:58:04;;;;;;;1.48;0.90;;;21.80;51.90;;;;;;5063152;28;20539;-85
2022/05/04 10:00:51;;;;;;;1.42;0.88;;;21.90;52.40;;;;;;5066974;28;20021;-86
2022/05/04 10:03:40;;;;;;;1.10;1.00;;;22.20;53.00;;;;;;5064320;28;20052;-86
2022/05/04 10:06:07;;;;;;;1.43;1.33;;;22.20;54.20;;;;;;5030240;28;20036;-86
2022/05/04 10:08:39;;;;;;;2.75;1.42;;;22.50;53.30;;;;;;5054131;28;20059;-85
2022/05/04 10:11:30;;;;;;;1.73;1.23;;;22.50;51.50;;;;;;5071083;28;20037;-84
2022/05/04 10:14:02;;;;;;;2.25;1.20;;;22.30;53.30;;;;;;5081272;28;20029;-85
2022/05/04 10:16:32;;;;;;;1.95;1.50;;;22.10;52.90;;;;;;5065448;28;20021;-86
2022/05/04 10:19:04;;;;;;;3.10;1.35;;;21.60;54.30;;;;;;5051634;28;20464;-85
2022/05/04 10:21:30;;;;;;;2.60;1.00;;;21.20;56.30;;;;;;5060679;28;20084;-85
2022/05/04 10:24:01;;;;;;;1.42;1.33;;;21.10;57.00;;;;;;5062977;28;20029;-85
2022/05/04 10:26:34;;;;;;;1.40;1.30;;;21.00;56.10;;;;;;5061490;28;20044;-85
2022/05/04 10:31:53;;;;;;;2.55;1.33;;;20.20;58.70;;;;;;5081781;28;20082;-85
2022/05/04 10:34:19;;;;;;;1.38;1.15;;;20.00;58.90;;;;;;5064054;28;20122;-85
2022/05/04 10:36:52;;;;;;;1.40;1.30;;;19.80;60.50;;;;;;5067373;28;20025;-85
2022/05/04 10:39:21;;;;;;;1.70;1.25;;;19.60;61.60;;;;;;5077231;28;20042;-85
2022/05/04 10:41:47;;;;;;;1.08;1.08;;;19.50;62.20;;;;;;5066042;28;20092;-85
2022/05/04 10:44:15;;;;;;;1.50;1.10;;;19.40;62.80;;;;;;5060554;28;20059;-86
2022/05/04 10:46:46;;;;;;;1.77;0.98;;;19.50;63.40;;;;;;5053268;28;20103;-86
2022/05/04 10:49:14;;;;;;;2.70;1.52;;;19.90;63.00;;;;;;5056379;28;20033;-85
2022/05/04 10:51:42;;;;;;;2.92;1.35;;;20.20;61.40;;;;;;5060717;28;20070;-84
2022/05/04 10:54:18;;;;;;;2.38;1.65;;;20.10;60.60;;;;;;5061250;28;20409;-85
2022/05/04 10:56:53;;;;;;;1.30;1.20;;;19.70;61.80;;;;;;5062011;28;20035;-85
2022/05/04 10:59:31;;;;;;;2.22;1.20;;;19.50;63.80;;;;;;5069616;28;20040;-85
2022/05/04 11:02:04;;;;;;;2.47;1.20;;;19.40;64.40;;;;;;5072515;28;20084;-85
2022/05/04 11:04:30;;;;;;;3.15;1.27;;;19.30;62.70;;;;;;5076596;28;20014;-84
2022/05/04 11:07:05;;;;;;;1.25;1.05;;;19.20;61.50;;;;;;5070988;28;20039;-84
2022/05/04 11:09:37;;;;;;;2.05;1.40;;;19.10;61.00;;;;;;5069526;28;20575;-85
2022/05/04 11:12:04;;;;;;;1.17;1.17;;;18.80;62.10;;;;;;5066176;28;20445;-85
2022/05/04 11:14:33;;;;;;;0.95;0.95;;;18.60;64.20;;;;;;5061522;28;20025;-85
2022/05/04 11:17:01;;;;;;;1.55;1.17;;;18.50;66.10;;;;;;5064509;28;20028;-84
2022/05/04 11:19:32;;;;;;;1.48;1.38;;;18.40;67.60;;;;;;5065201;28;20067;-85
2022/05/04 11:21:58;;;;;;;2.58;1.23;;;18.30;67.70;;;;;;5061472;28;20020;-84
2022/05/04 11:24:28;;;;;;;1.20;1.10;;;18.10;68.40;;;;;;5061430;28;20029;-85
2022/05/04 11:26:55;;;;;;;1.48;1.40;;;18.20;68.90;;;;;;5059770;28;20028;-85
2022/05/04 11:29:29;;;;;;;1.77;1.67;;;18.30;68.50;;;;;;5059450;28;20291;-84
2022/05/04 11:32:00;;;;;;;3.90;2.17;;;18.40;67.30;;;;;;5061740;28;20021;-85
2022/05/04 11:34:28;;;;;;;3.03;2.28;;;18.30;68.30;;;;;;5060219;28;20474;-84
2022/05/04 11:36:58;;;;;;;5.07;2.80;;;17.50;76.40;;;;;;5044020;28;20063;-83
2022/05/04 11:39:26;;;;;;;3.45;2.20;;;17.00;83.20;;;;;;5061739;28;20076;-84
2022/05/04 11:41:55;;;;;;;1.88;1.60;;;16.70;85.10;;;;;;5069163;28;20059;-85
2022/05/04 11:44:22;;;;;;;1.50;1.38;;;17.00;89.30;;;;;;5058367;28;20060;-85
2022/05/04 11:46:50;;;;;;;1.70;1.58;;;17.50;90.20;;;;;;5075979;28;20032;-86
2022/05/04 11:49:16;;;;;;;2.00;1.65;;;18.10;90.50;;;;;;5058280;28;20105;-84
2022/05/04 11:51:42;;;;;;;1.65;1.55;;;18.80;87.40;;;;;;5075983;28;20029;-86
2022/05/04 11:54:08;;;;;;;2.67;2.00;;;19.00;82.70;;;;;;5075693;28;20021;-86
2022/05/04 11:56:35;;;;;;;1.90;1.80;;;19.10;78.60;;;;;;5069450;28;20028;-83
2022/05/04 11:59:01;;;;;;;2.05;1.85;;;19.10;78.70;;;;;;5059750;28;20029;-85
2022/05/04 12:01:27;;;;;;;2.05;1.83;;;19.20;78.00;;;;;;5024940;28;20039;-84
2022/05/04 12:03:54;;;;;;;2.17;1.80;;;19.20;75.60;;;;;;5058200;28;20063;-85
2022/05/04 12:06:21;;;;;;;1.90;1.70;;;19.50;76.10;;;;;;5058928;28;20047;-85
2022/05/04 12:08:47;;;;;;;2.08;1.65;;;19.50;76.70;;;;;;5058433;28;20036;-85
2022/05/04 12:11:15;;;;;;;2.20;1.70;;;19.30;74.90;;;;;;5060038;28;20053;-85
2022/05/04 12:13:43;;;;;;;2.58;1.42;;;19.20;75.40;;;;;;5060170;28;20021;-84
2022/05/04 12:16:10;;;;;;;1.20;1.10;;;19.40;75.10;;;;;;5059498;28;20013;-85
2022/05/04 12:18:38;;;;;;;1.33;1.10;;;19.60;73.70;;;;;;5060309;28;20063;-83
2022/05/04 12:21:16;;;;;;;1.55;1.45;;;19.90;72.30;;;;;;5042631;28;20025;-85
2022/05/04 12:23:44;;;;;;;1.52;1.25;;;19.80;72.50;;;;;;5044722;28;20108;-85
2022/05/04 12:26:12;;;;;;;1.35;1.20;;;19.90;72.50;;;;;;5045378;28;20021;-84
2022/05/04 12:28:40;;;;;;;1.75;1.30;;;20.10;72.00;;;;;;5048170;28;20021;-85
2022/05/04 12:33:51;;;;;;;0.90;0.88;;;20.30;68.10;;;;;;5076336;28;20040;-85
2022/05/04 12:36:18;;;;;;;0.60;0.60;;;20.50;65.00;;;;;;5067956;28;20048;-85
2022/05/04 12:38:47;;;;;;;1.08;0.90;;;20.60;61.60;;;;;;5045351;28;20052;-85
2022/05/04 12:41:17;;;;;;;0.75;0.75;;;20.70;59.80;;;;;;5065068;28;20081;-84
2022/05/04 12:43:43;;;;;;;0.60;0.60;;;20.80;58.70;;;;;;5062087;28;20029;-85
2022/05/04 12:46:15;;;;;;;1.05;0.75;;;21.30;57.40;;;;;;5062760;28;20017;-83
2022/05/04 12:48:43;;;;;;;0.73;0.73;;;21.70;55.90;;;;;;5043863;28;20033;-83
2022/05/04 12:51:10;;;;;;;0.80;0.80;;;22.20;53.90;;;;;;5041838;28;20492;-84
2022/05/04 12:53:38;;;;;;;0.98;0.98;;;22.70;53.10;;;;;;5024968;28;20022;-85
2022/05/04 12:58:49;;;;;;;1.00;0.90;;;23.30;50.90;;;;;;5045620;28;20035;-85
2022/05/04 13:01:16;;;;;;;0.82;0.82;;;23.20;51.50;;;;;;5046324;28;20033;-86
2022/05/04 13:03:41;;;;;;;0.90;0.90;;;23.20;51.20;;;;;;5022810;28;20068;-86
2022/05/04 13:06:07;;;;;;;1.00;0.90;;;23.10;51.50;;;;;;5042085;28;20033;-86
2022/05/04 13:08:33;;;;;;;1.35;0.95;;;22.90;52.10;;;;;;5042370;28;20032;-87
2022/05/04 13:10:59;;;;;;;1.83;0.90;;;22.80;52.70;;;;;;5050775;28;20089;-85
2022/05/04 13:13:25;;;;;;;1.10;1.05;;;23.00;52.40;;;;;;5071448;28;20174;-87
2022/05/04 13:15:51;;;;;;;1.38;0.82;;;23.20;52.70;;;;;;5072010;28;20025;-86
2022/05/04 13:18:18;;;;;;;1.30;1.20;;;23.70;50.20;;;;;;5050761;28;20040;-86
2022/05/04 13:20:52;;;;;;;1.02;1.00;;;23.90;48.80;;;;;;5063144;28;20025;-86
2022/05/04 13:23:18;;;;;;;2.60;1.38;;;24.00;48.30;;;;;;5044685;28;20083;-85
2022/05/04 13:25:44;;;;;;;2.00;1.50;;;23.90;48.40;;;;;;5064599;28;20020;-86
2022/05/04 13:28:09;;;;;;;2.17;1.33;;;24.10;48.10;;;;;;5063431;28;20028;-85
2022/05/04 13:30:35;;;;;;;2.15;2.05;;;24.40;47.90;;;;;;5066096;28;20549;-84
2022/05/04 13:33:01;;;;;;;1.45;1.35;;;24.50;45.50;;;;;;5048335;28;20063;-83
2022/05/04 13:35:45;;;;;;;2.53;1.38;;;24.40;46.40;;;;;;5056927;28;20160;-86
2022/05/04 13:38:11;;;;;;;1.45;1.35;;;24.10;46.40;;;;;;5067164;28;20025;-86
2022/05/04 13:40:37;;;;;;;2.47;1.40;;;23.70;46.00;;;;;;5083790;28;20108;-85
2022/05/04 13:43:03;;;;;;;1.33;1.20;;;23.50;47.00;;;;;;5084749;28;20089;-85
2022/05/04 13:45:39;;;;;;;;;;;;;;;;;;;;;
2022/05/04 13:48:11;;;;;;;2.85;1.45;;;23.40;47.60;;;;;;5065208;28;20112;-86
2022/05/04 13:53:26;;;;;;;2.25;1.30;;;23.70;47.40;;;;;;5065115;28;20032;-84
2022/05/04 13:55:56;;;;;;;2.75;1.85;;;23.70;47.20;;;;;;5066718;28;20033;-85